createdAt,value
2018-09-05T00:00:39.524Z,18.76
2018-09-05T00:01:39.585Z,18.84
2018-09-05T00:02:39.647Z,18.94
2018-09-05T00:03:39.711Z,18.86
2018-09-05T00:04:39.774Z,18.84
2018-09-05T00:05:39.835Z,18.84
2018-09-05T00:06:39.898Z,18.82
2018-09-05T00:07:39.960Z,18.82
2018-09-05T00:08:40.022Z,18.75
2018-09-05T00:09:40.086Z,18.74
2018-09-05T00:10:40.147Z,18.79
2018-09-05T00:11:40.210Z,18.84
2018-09-05T00:12:40.272Z,18.84
2018-09-05T00:13:40.333Z,18.79
2018-09-05T00:14:40.397Z,18.89
2018-09-05T00:15:40.461Z,18.90
2018-09-05T00:16:40.522Z,18.74
2018-09-05T00:17:40.586Z,18.65
2018-09-05T00:18:40.647Z,18.78
2018-09-05T00:19:40.747Z,18.71
2018-09-05T00:20:40.771Z,18.74
2018-09-05T00:21:40.833Z,18.57
2018-09-05T00:22:40.897Z,18.69
2018-09-05T00:23:40.967Z,18.74
2018-09-05T00:24:41.020Z,18.78
2018-09-05T00:25:41.083Z,18.76
2018-09-05T00:26:41.145Z,18.78
2018-09-05T00:27:41.208Z,18.83
2018-09-05T00:28:41.269Z,18.76
2018-09-05T00:29:41.332Z,18.74
2018-09-05T00:30:41.398Z,18.65
2018-09-05T00:31:41.457Z,18.59
2018-09-05T00:32:41.519Z,18.54
2018-09-05T00:33:41.581Z,18.46
2018-09-05T00:34:41.643Z,18.41
2018-09-05T00:35:41.706Z,18.29
2018-09-05T00:36:41.767Z,18.32
2018-09-05T00:37:41.830Z,18.31
2018-09-05T00:38:41.893Z,18.19
2018-09-05T00:39:41.955Z,18.20
2018-09-05T00:40:42.017Z,18.28
2018-09-05T00:41:42.079Z,18.21
2018-09-05T00:42:42.141Z,18.32
2018-09-05T00:43:42.454Z,18.29
2018-09-05T00:44:42.266Z,18.19
2018-09-05T00:45:42.327Z,18.23
2018-09-05T00:46:42.390Z,18.21
2018-09-05T00:47:42.452Z,18.29
2018-09-05T00:48:42.515Z,18.26
2018-09-05T00:49:42.576Z,18.29
2018-09-05T00:50:42.638Z,18.19
2018-09-05T00:51:42.701Z,18.23
2018-09-05T00:52:42.762Z,18.19
2018-09-05T00:53:42.825Z,18.23
2018-09-05T00:54:42.887Z,18.29
2018-09-05T00:55:42.950Z,18.36
2018-09-05T00:56:43.011Z,18.32
2018-09-05T00:57:43.075Z,18.34
2018-09-05T00:58:43.136Z,18.31
2018-09-05T00:59:43.198Z,18.34
2018-09-05T01:00:43.261Z,18.20
2018-09-05T01:01:43.322Z,18.21
2018-09-05T01:02:43.389Z,18.09
2018-09-05T01:03:43.446Z,18.20
2018-09-05T01:04:43.508Z,18.16
2018-09-05T01:05:43.570Z,18.17
2018-09-05T01:06:43.632Z,18.17
2018-09-05T01:07:43.696Z,18.23
2018-09-05T01:08:43.756Z,18.23
2018-09-05T01:09:43.819Z,18.28
2018-09-05T01:10:43.884Z,18.21
2018-09-05T01:11:43.944Z,18.25
2018-09-05T01:12:44.004Z,18.19
2018-09-05T01:13:44.066Z,18.23
2018-09-05T01:14:44.129Z,18.13
2018-09-05T01:15:44.192Z,18.11
2018-09-05T01:16:44.252Z,18.09
2018-09-05T01:17:44.315Z,17.87
2018-09-05T01:18:44.377Z,17.95
2018-09-05T01:19:44.440Z,17.92
2018-09-05T01:20:44.501Z,17.91
2018-09-05T01:21:44.564Z,17.92
2018-09-05T01:22:44.627Z,17.91
2018-09-05T01:23:44.687Z,17.86
2018-09-05T01:24:44.750Z,17.86
2018-09-05T01:25:44.811Z,17.84
2018-09-05T01:26:44.874Z,17.83
2018-09-05T01:27:44.935Z,17.92
2018-09-05T01:28:44.998Z,17.89
2018-09-05T01:29:45.064Z,17.91
2018-09-05T01:30:45.121Z,17.86
2018-09-05T01:31:45.183Z,17.79
2018-09-05T01:32:45.244Z,17.76
2018-09-05T01:33:45.556Z,17.74
2018-09-05T01:34:45.368Z,17.79
2018-09-05T01:35:45.430Z,17.62
2018-09-05T01:36:45.491Z,17.57
2018-09-05T01:37:45.555Z,17.54
2018-09-05T01:38:45.616Z,17.57
2018-09-05T01:39:45.679Z,17.53
2018-09-05T01:40:45.742Z,17.57
2018-09-05T01:41:45.803Z,17.62
2018-09-05T01:42:45.895Z,17.58
2018-09-05T01:43:45.927Z,17.57
2018-09-05T01:44:45.987Z,17.60
2018-09-05T01:45:46.049Z,17.60
2018-09-05T01:46:46.112Z,17.54
2018-09-05T01:47:46.174Z,17.66
2018-09-05T01:48:46.236Z,17.53
2018-09-05T01:49:46.297Z,17.55
2018-09-05T01:50:46.359Z,17.54
2018-09-05T01:51:46.426Z,17.47
2018-09-05T01:52:46.482Z,17.58
2018-09-05T01:53:46.545Z,17.53
2018-09-05T01:54:46.607Z,17.51
2018-09-05T01:55:46.668Z,17.54
2018-09-05T01:56:46.728Z,17.53
2018-09-05T01:57:46.792Z,17.60
2018-09-05T01:58:46.904Z,17.71
2018-09-05T01:59:46.949Z,17.58
2018-09-05T02:00:46.976Z,17.71
2018-09-05T02:01:47.038Z,17.57
2018-09-05T02:02:47.101Z,17.53
2018-09-05T02:03:47.162Z,17.57
2018-09-05T02:04:47.223Z,17.58
2018-09-05T02:05:47.285Z,17.43
2018-09-05T02:06:47.347Z,17.57
2018-09-05T02:07:47.412Z,17.43
2018-09-05T02:08:47.470Z,17.46
2018-09-05T02:09:47.533Z,17.32
2018-09-05T02:10:47.595Z,17.32
2018-09-05T02:11:47.656Z,17.30
2018-09-05T02:12:47.717Z,17.36
2018-09-05T02:13:47.778Z,17.35
2018-09-05T02:14:47.841Z,17.28
2018-09-05T02:15:47.901Z,17.18
2018-09-05T02:16:47.963Z,17.20
2018-09-05T02:17:48.027Z,17.22
2018-09-05T02:18:48.088Z,17.24
2018-09-05T02:19:48.149Z,17.17
2018-09-05T02:20:48.210Z,17.27
2018-09-05T02:21:48.275Z,17.27
2018-09-05T02:22:48.334Z,17.33
2018-09-05T02:23:48.396Z,17.42
2018-09-05T02:24:48.457Z,17.39
2018-09-05T02:25:48.518Z,17.38
2018-09-05T02:26:48.580Z,17.33
2018-09-05T02:27:48.645Z,17.25
2018-09-05T02:28:48.704Z,17.27
2018-09-05T02:29:48.765Z,17.28
2018-09-05T02:30:48.827Z,17.22
2018-09-05T02:31:48.888Z,17.14
2018-09-05T02:32:48.953Z,17.06
2018-09-05T02:33:49.010Z,17.05
2018-09-05T02:34:49.326Z,17.06
2018-09-05T02:35:49.135Z,17.07
2018-09-05T02:36:49.196Z,17.07
2018-09-05T02:37:49.258Z,17.20
2018-09-05T02:38:49.321Z,17.15
2018-09-05T02:39:49.382Z,17.15
2018-09-05T02:40:49.556Z,17.09
2018-09-05T02:41:49.505Z,17.10
2018-09-05T02:42:49.566Z,17.03
2018-09-05T02:43:49.628Z,17.06
2018-09-05T02:44:49.689Z,17.06
2018-09-05T02:45:49.750Z,17.15
2018-09-05T02:46:49.812Z,17.07
2018-09-05T02:47:49.874Z,17.03
2018-09-05T02:48:49.934Z,17.06
2018-09-05T02:49:49.996Z,17.07
2018-09-05T02:50:50.058Z,16.96
2018-09-05T02:51:50.120Z,17.05
2018-09-05T02:52:50.191Z,16.98
2018-09-05T02:53:50.244Z,17.02
2018-09-05T02:54:50.307Z,16.81
2018-09-05T02:55:50.367Z,16.82
2018-09-05T02:56:50.427Z,16.84
2018-09-05T02:57:50.490Z,16.70
2018-09-05T02:58:50.550Z,16.80
2018-09-05T02:59:50.611Z,16.77
2018-09-05T03:00:50.672Z,16.70
2018-09-05T03:01:50.734Z,16.73
2018-09-05T03:02:50.796Z,16.73
2018-09-05T03:03:50.858Z,16.73
2018-09-05T03:04:50.919Z,16.81
2018-09-05T03:05:50.981Z,16.69
2018-09-05T03:06:51.048Z,16.78
2018-09-05T03:07:51.104Z,16.82
2018-09-05T03:08:51.165Z,16.80
2018-09-05T03:09:51.226Z,16.84
2018-09-05T03:10:51.287Z,16.84
2018-09-05T03:11:51.352Z,16.81
2018-09-05T03:12:51.411Z,16.90
2018-09-05T03:13:51.472Z,16.78
2018-09-05T03:14:51.535Z,16.87
2018-09-05T03:15:51.596Z,16.73
2018-09-05T03:16:51.659Z,16.70
2018-09-05T03:17:51.718Z,16.52
2018-09-05T03:18:51.780Z,16.44
2018-09-05T03:19:51.841Z,16.50
2018-09-05T03:20:51.905Z,16.51
2018-09-05T03:21:51.969Z,16.47
2018-09-05T03:22:52.026Z,16.52
2018-09-05T03:23:52.089Z,16.52
2018-09-05T03:24:52.149Z,16.51
2018-09-05T03:25:52.211Z,16.50
2018-09-05T03:26:52.276Z,16.57
2018-09-05T03:27:52.335Z,16.57
2018-09-05T03:28:52.393Z,16.57
2018-09-05T03:29:52.456Z,16.57
2018-09-05T03:30:52.525Z,16.59
2018-09-05T03:31:52.579Z,16.65
2018-09-05T03:32:52.736Z,16.65
2018-09-05T03:33:52.701Z,16.63
2018-09-05T03:34:52.764Z,16.50
2018-09-05T03:35:52.824Z,16.45
2018-09-05T03:36:52.884Z,16.44
2018-09-05T03:37:52.946Z,16.47
2018-09-05T03:38:53.008Z,16.37
2018-09-05T03:39:53.071Z,16.42
2018-09-05T03:40:53.131Z,16.55
2018-09-05T03:41:53.191Z,16.45
2018-09-05T03:42:53.254Z,16.59
2018-09-05T03:43:53.316Z,16.62
2018-09-05T03:44:53.379Z,16.47
2018-09-05T03:45:53.444Z,16.44
2018-09-05T03:46:53.502Z,16.52
2018-09-05T03:47:53.570Z,16.44
2018-09-05T03:48:53.620Z,16.37
2018-09-05T03:49:53.768Z,16.37
2018-09-05T03:50:53.744Z,16.36
2018-09-05T03:51:53.813Z,16.37
2018-09-05T03:52:53.867Z,16.37
2018-09-05T03:53:53.928Z,16.48
2018-09-05T03:54:53.989Z,16.32
2018-09-05T03:55:54.051Z,16.37
2018-09-05T03:56:54.112Z,16.37
2018-09-05T03:57:54.178Z,16.44
2018-09-05T03:58:54.235Z,16.37
2018-09-05T03:59:54.296Z,16.47
2018-09-05T04:00:54.508Z,16.44
2018-09-05T04:01:54.418Z,16.40
2018-09-05T04:02:54.479Z,16.36
2018-09-05T04:03:54.542Z,16.41
2018-09-05T04:04:54.606Z,16.41
2018-09-05T04:05:54.664Z,16.26
2018-09-05T04:06:54.724Z,16.25
2018-09-05T04:07:54.785Z,16.25
2018-09-05T04:08:54.847Z,16.25
2018-09-05T04:09:54.908Z,16.27
2018-09-05T04:10:54.969Z,16.27
2018-09-05T04:11:55.030Z,16.29
2018-09-05T04:12:55.091Z,16.25
2018-09-05T04:13:55.153Z,16.26
2018-09-05T04:14:55.214Z,16.26
2018-09-05T04:15:55.274Z,16.29
2018-09-05T04:16:55.336Z,16.26
2018-09-05T04:17:55.398Z,16.27
2018-09-05T04:18:55.459Z,16.26
2018-09-05T04:19:55.520Z,16.25
2018-09-05T04:20:55.581Z,16.32
2018-09-05T04:21:55.684Z,16.23
2018-09-05T04:22:55.703Z,16.23
2018-09-05T04:23:55.765Z,16.23
2018-09-05T04:24:55.828Z,16.25
2018-09-05T04:25:55.887Z,16.17
2018-09-05T04:26:55.949Z,16.06
2018-09-05T04:27:56.010Z,16.03
2018-09-05T04:28:56.072Z,16.08
2018-09-05T04:29:56.137Z,16.04
2018-09-05T04:30:56.194Z,16.04
2018-09-05T04:31:56.255Z,15.99
2018-09-05T04:32:56.315Z,16.17
2018-09-05T04:33:56.378Z,16.07
2018-09-05T04:34:56.438Z,16.16
2018-09-05T04:35:56.682Z,16.07
2018-09-05T04:36:56.560Z,16.13
2018-09-05T04:37:56.621Z,16.22
2018-09-05T04:38:56.683Z,16.13
2018-09-05T04:39:56.747Z,16.16
2018-09-05T04:40:56.805Z,16.25
2018-09-05T04:41:56.866Z,16.29
2018-09-05T04:42:56.928Z,16.26
2018-09-05T04:43:56.989Z,16.25
2018-09-05T04:44:57.050Z,16.22
2018-09-05T04:45:57.115Z,16.23
2018-09-05T04:46:57.178Z,16.03
2018-09-05T04:47:57.233Z,16.04
2018-09-05T04:48:57.294Z,16.10
2018-09-05T04:49:57.357Z,16.11
2018-09-05T04:50:57.416Z,16.08
2018-09-05T04:51:57.478Z,16.03
2018-09-05T04:52:57.538Z,16.14
2018-09-05T04:53:57.645Z,16.16
2018-09-05T04:54:58.553Z,16.16
2018-09-05T04:55:57.727Z,16.17
2018-09-05T04:56:57.787Z,16.22
2018-09-05T04:57:57.879Z,16.26
2018-09-05T04:58:57.906Z,16.17
2018-09-05T04:59:57.967Z,16.10
2018-09-05T05:00:58.278Z,16.03
2018-09-05T05:01:58.089Z,16.06
2018-09-05T05:02:58.150Z,16.06
2018-09-05T05:03:58.211Z,16.03
2018-09-05T05:04:58.606Z,16.17
2018-09-05T05:05:58.333Z,16.10
2018-09-05T05:06:58.398Z,16.22
2018-09-05T05:07:58.456Z,16.16
2018-09-05T05:08:58.540Z,16.18
2018-09-05T05:09:58.582Z,16.23
2018-09-05T05:10:58.638Z,16.25
2018-09-05T05:11:58.699Z,16.18
2018-09-05T05:12:58.760Z,16.16
2018-09-05T05:13:58.823Z,16.18
2018-09-05T05:14:58.883Z,16.22
2018-09-05T05:15:59.326Z,16.22
2018-09-05T05:16:59.007Z,16.14
2018-09-05T05:17:59.068Z,16.04
2018-09-05T05:18:59.128Z,16.08
2018-09-05T05:19:59.226Z,16.04
2018-09-05T05:20:59.249Z,16.06
2018-09-05T05:21:59.311Z,16.14
2018-09-05T05:22:59.374Z,16.22
2018-09-05T05:23:59.469Z,16.23
2018-09-05T05:24:59.494Z,16.23
2018-09-05T05:25:59.555Z,16.13
2018-09-05T05:26:59.618Z,16.14
2018-09-05T05:27:59.679Z,16.18
2018-09-05T05:29:00.195Z,16.04
2018-09-05T05:29:59.799Z,16.16
2018-09-05T05:30:59.863Z,16.16
2018-09-05T05:31:59.924Z,16.16
2018-09-05T05:33:00.012Z,16.16
2018-09-05T05:34:00.045Z,16.26
2018-09-05T05:35:00.110Z,16.26
2018-09-05T05:36:00.168Z,16.27
2018-09-05T05:37:00.228Z,16.23
2018-09-05T05:38:00.290Z,16.27
2018-09-05T05:39:00.354Z,16.29
2018-09-05T05:40:00.413Z,16.37
2018-09-05T05:41:00.475Z,16.33
2018-09-05T05:42:00.536Z,16.32
2018-09-05T05:43:00.596Z,16.26
2018-09-05T05:44:00.657Z,16.41
2018-09-05T05:45:00.719Z,16.36
2018-09-05T05:46:01.091Z,16.29
2018-09-05T05:47:00.841Z,16.33
2018-09-05T05:48:00.903Z,16.33
2018-09-05T05:49:00.964Z,16.36
2018-09-05T05:50:01.025Z,16.34
2018-09-05T05:51:01.086Z,16.36
2018-09-05T05:52:01.149Z,16.37
2018-09-05T05:53:01.213Z,16.34
2018-09-05T05:54:01.269Z,16.33
2018-09-05T05:55:01.370Z,16.32
2018-09-05T05:56:01.395Z,16.40
2018-09-05T05:57:01.453Z,16.34
2018-09-05T05:58:01.515Z,16.33
2018-09-05T05:59:01.576Z,16.41
2018-09-05T06:00:01.638Z,16.40
2018-09-05T06:01:01.730Z,16.41
2018-09-05T06:02:01.760Z,16.41
2018-09-05T06:03:01.821Z,16.44
2018-09-05T06:04:01.883Z,16.41
2018-09-05T06:05:01.944Z,16.47
2018-09-05T06:06:02.032Z,16.62
2018-09-05T06:07:02.068Z,16.57
2018-09-05T06:08:02.128Z,16.59
2018-09-05T06:09:02.189Z,16.62
2018-09-05T06:10:02.251Z,16.52
2018-09-05T06:11:02.312Z,16.54
2018-09-05T06:12:02.386Z,16.65
2018-09-05T06:13:02.434Z,16.55
2018-09-05T06:14:02.496Z,16.72
2018-09-05T06:15:02.558Z,16.77
2018-09-05T06:16:02.624Z,16.81
2018-09-05T06:17:02.931Z,16.78
2018-09-05T06:18:02.796Z,16.87
2018-09-05T06:19:03.485Z,16.81
2018-09-05T06:20:02.877Z,16.73
2018-09-05T06:21:02.962Z,16.80
2018-09-05T06:22:02.989Z,16.82
2018-09-05T06:23:03.050Z,16.90
2018-09-05T06:24:03.172Z,16.98
2018-09-05T06:25:03.269Z,17.00
2018-09-05T06:26:03.236Z,17.03
2018-09-05T06:27:03.296Z,16.92
2018-09-05T06:28:03.361Z,16.98
2018-09-05T06:29:03.420Z,16.95
2018-09-05T06:30:03.513Z,17.03
2018-09-05T06:31:03.728Z,17.00
2018-09-05T06:32:03.606Z,16.99
2018-09-05T06:33:03.704Z,17.00
2018-09-05T06:34:03.782Z,17.05
2018-09-05T06:35:03.792Z,17.07
2018-09-05T06:36:04.161Z,17.12
2018-09-05T06:37:03.913Z,17.10
2018-09-05T06:38:03.976Z,17.18
2018-09-05T06:39:04.073Z,17.28
2018-09-05T06:40:04.103Z,17.28
2018-09-05T06:41:04.162Z,17.36
2018-09-05T06:42:04.221Z,17.36
2018-09-05T06:43:04.323Z,17.42
2018-09-05T06:44:04.583Z,17.35
2018-09-05T06:45:04.500Z,17.47
2018-09-05T06:46:04.514Z,17.63
2018-09-05T06:47:04.569Z,17.55
2018-09-05T06:48:04.631Z,17.60
2018-09-05T06:49:04.690Z,17.62
2018-09-05T06:50:04.788Z,17.57
2018-09-05T06:51:05.823Z,17.63
2018-09-05T06:52:04.923Z,17.62
2018-09-05T06:53:04.950Z,17.66
2018-09-05T06:54:05.321Z,17.81
2018-09-05T06:55:05.030Z,17.79
2018-09-05T06:56:05.092Z,17.89
2018-09-05T06:57:05.153Z,17.83
2018-09-05T06:58:05.270Z,17.87
2018-09-05T06:59:05.279Z,17.89
2018-09-05T07:00:05.341Z,17.95
2018-09-05T07:01:05.402Z,17.95
2018-09-05T07:02:05.465Z,18.07
2018-09-05T07:03:05.528Z,18.16
2018-09-05T07:04:05.590Z,18.17
2018-09-05T07:05:06.113Z,18.31
2018-09-05T07:06:05.715Z,18.21
2018-09-05T07:07:05.844Z,18.32
2018-09-05T07:08:05.840Z,18.36
2018-09-05T07:09:05.902Z,18.34
2018-09-05T07:10:05.984Z,18.44
2018-09-05T07:11:06.029Z,18.47
2018-09-05T07:12:06.092Z,18.57
2018-09-05T07:13:06.155Z,18.56
2018-09-05T07:14:06.233Z,18.59
2018-09-05T07:15:06.283Z,18.69
2018-09-05T07:16:06.343Z,18.72
2018-09-05T07:17:06.406Z,18.72
2018-09-05T07:18:06.468Z,18.69
2018-09-05T07:19:06.533Z,18.82
2018-09-05T07:20:06.595Z,18.84
2018-09-05T07:21:06.663Z,18.82
2018-09-05T07:22:06.861Z,18.72
2018-09-05T07:23:06.784Z,18.69
2018-09-05T07:24:06.847Z,18.82
2018-09-05T07:25:06.969Z,18.75
2018-09-05T07:26:06.973Z,18.82
2018-09-05T07:27:07.036Z,18.74
2018-09-05T07:28:07.101Z,18.75
2018-09-05T07:29:07.161Z,18.78
2018-09-05T07:30:07.226Z,18.86
2018-09-05T07:31:07.289Z,18.93
2018-09-05T07:32:07.354Z,19.05
2018-09-05T07:33:07.416Z,19.16
2018-09-05T07:34:07.480Z,19.23
2018-09-05T07:35:07.542Z,19.28
2018-09-05T07:36:07.614Z,19.25
2018-09-05T07:37:07.673Z,19.42
2018-09-05T07:38:07.818Z,19.46
2018-09-05T07:39:07.797Z,19.62
2018-09-05T07:40:07.862Z,19.68
2018-09-05T07:41:07.924Z,19.70
2018-09-05T07:42:07.988Z,19.76
2018-09-05T07:43:08.052Z,19.80
2018-09-05T07:44:08.119Z,19.82
2018-09-05T07:45:08.180Z,19.75
2018-09-05T07:46:08.245Z,19.80
2018-09-05T07:47:08.308Z,19.86
2018-09-05T07:48:08.373Z,20.02
2018-09-05T07:49:08.436Z,20.02
2018-09-05T07:50:08.501Z,20.05
2018-09-05T07:51:08.642Z,20.16
2018-09-05T07:52:08.645Z,20.30
2018-09-05T07:53:08.694Z,20.35
2018-09-05T07:54:08.757Z,20.42
2018-09-05T07:55:08.822Z,20.42
2018-09-05T07:56:08.888Z,20.41
2018-09-05T07:57:08.955Z,20.57
2018-09-05T07:58:09.017Z,20.60
2018-09-05T07:59:09.082Z,20.60
2018-09-05T08:00:09.147Z,20.66
2018-09-05T08:01:09.212Z,20.61
2018-09-05T08:02:09.275Z,20.60
2018-09-05T08:03:09.341Z,20.66
2018-09-05T08:04:09.405Z,20.71
2018-09-05T08:05:09.471Z,20.78
2018-09-05T08:06:09.919Z,20.78
2018-09-05T08:07:09.603Z,20.91
2018-09-05T08:08:09.666Z,21.03
2018-09-05T08:09:09.730Z,21.05
2018-09-05T08:10:09.795Z,21.15
2018-09-05T08:11:09.860Z,21.28
2018-09-05T08:12:09.925Z,21.33
2018-09-05T08:13:09.990Z,21.45
2018-09-05T08:14:10.061Z,21.43
2018-09-05T08:15:10.120Z,21.58
2018-09-05T08:16:10.187Z,21.56
2018-09-05T08:17:10.251Z,21.70
2018-09-05T08:18:10.342Z,21.71
2018-09-05T08:19:10.382Z,21.83
2018-09-05T08:20:10.448Z,21.96
2018-09-05T08:21:10.513Z,22.05
2018-09-05T08:22:10.577Z,22.05
2018-09-05T08:23:10.643Z,22.06
2018-09-05T08:24:10.773Z,22.05
2018-09-05T08:25:10.779Z,22.30
2018-09-05T08:26:10.842Z,22.35
2018-09-05T08:27:10.908Z,22.41
2018-09-05T08:28:11.003Z,22.48
2018-09-05T08:29:11.052Z,22.23
2018-09-05T08:30:11.176Z,22.23
2018-09-05T08:31:11.173Z,22.29
2018-09-05T08:32:11.238Z,22.33
2018-09-05T08:33:11.304Z,22.49
2018-09-05T08:34:11.370Z,22.63
2018-09-05T08:35:11.623Z,22.85
2018-09-05T08:36:11.897Z,22.89
2018-09-05T08:37:11.839Z,23.07
2018-09-05T08:39:11.703Z,23.44
2018-09-05T08:40:11.770Z,23.45
2018-09-05T08:41:11.842Z,23.52
2018-09-05T08:42:11.908Z,23.69
2018-09-05T08:43:11.970Z,23.72
2018-09-05T08:44:12.329Z,23.57
2018-09-05T08:45:12.371Z,23.72
2018-09-05T08:46:12.399Z,23.84
2018-09-05T08:47:12.255Z,23.84
2018-09-05T08:48:12.391Z,23.90
2018-09-05T08:49:12.370Z,23.78
2018-09-05T08:50:12.439Z,23.81
2018-09-05T08:51:12.508Z,23.87
2018-09-05T08:52:12.574Z,24.05
2018-09-05T08:53:12.684Z,24.08
2018-09-05T08:54:12.708Z,24.23
2018-09-05T08:55:12.800Z,24.33
2018-09-05T08:56:12.937Z,24.39
2018-09-05T08:57:12.910Z,24.56
2018-09-05T08:58:12.993Z,24.67
2018-09-05T08:59:13.045Z,24.80
2018-09-05T09:00:13.116Z,24.83
2018-09-05T09:01:13.180Z,24.82
2018-09-05T09:02:13.247Z,24.99
2018-09-05T09:03:13.315Z,25.14
2018-09-05T09:04:13.386Z,25.04
2018-09-05T09:05:13.449Z,25.24
2018-09-05T09:06:13.518Z,25.30
2018-09-05T09:07:13.586Z,25.42
2018-09-05T09:08:13.654Z,25.54
2018-09-05T09:09:13.722Z,25.51
2018-09-05T09:10:13.789Z,25.66
2018-09-05T09:11:13.857Z,25.61
2018-09-05T09:12:13.926Z,25.61
2018-09-05T09:13:13.994Z,25.72
2018-09-05T09:14:14.062Z,25.79
2018-09-05T09:15:14.131Z,25.89
2018-09-05T09:16:14.200Z,25.96
2018-09-05T09:17:14.841Z,26.12
2018-09-05T09:18:14.335Z,26.09
2018-09-05T09:19:14.403Z,26.09
2018-09-05T09:20:14.472Z,26.09
2018-09-05T09:21:14.538Z,26.13
2018-09-05T09:22:14.607Z,26.32
2018-09-05T09:23:14.676Z,26.42
2018-09-05T09:24:14.746Z,26.47
2018-09-05T09:25:14.814Z,26.57
2018-09-05T09:26:14.882Z,26.68
2018-09-05T09:27:14.950Z,26.69
2018-09-05T09:28:15.046Z,26.75
2018-09-05T09:29:15.089Z,26.69
2018-09-05T09:30:15.158Z,26.71
2018-09-05T09:31:15.224Z,26.65
2018-09-05T09:32:15.890Z,26.32
2018-09-05T09:33:16.236Z,26.12
2018-09-05T09:34:15.428Z,26.38
2018-09-05T09:35:15.518Z,26.47
2018-09-05T09:36:15.566Z,26.53
2018-09-05T09:37:15.634Z,26.72
2018-09-05T09:38:15.702Z,26.79
2018-09-05T09:39:15.783Z,26.79
2018-09-05T09:40:15.842Z,26.75
2018-09-05T09:41:15.906Z,26.88
2018-09-05T09:42:15.975Z,26.98
2018-09-05T09:43:16.044Z,27.06
2018-09-05T09:44:16.112Z,27.06
2018-09-05T09:45:16.180Z,27.24
2018-09-05T09:46:16.250Z,27.27
2018-09-05T09:47:16.318Z,27.28
2018-09-05T09:48:16.388Z,27.25
2018-09-05T09:49:16.454Z,27.27
2018-09-05T09:50:16.521Z,27.42
2018-09-05T09:51:16.591Z,27.45
2018-09-05T09:52:16.659Z,27.31
2018-09-05T09:53:16.728Z,27.46
2018-09-05T09:54:16.795Z,27.43
2018-09-05T09:55:16.865Z,27.33
2018-09-05T09:56:16.933Z,27.23
2018-09-05T09:57:17.002Z,27.27
2018-09-05T09:58:17.321Z,27.27
2018-09-05T09:59:17.138Z,27.34
2018-09-05T10:00:17.212Z,27.40
2018-09-05T10:01:17.275Z,27.49
2018-09-05T10:02:17.344Z,27.49
2018-09-05T10:03:17.451Z,27.59
2018-09-05T10:04:17.482Z,27.58
2018-09-05T10:05:17.549Z,27.46
2018-09-05T10:06:17.618Z,27.50
2018-09-05T10:07:17.703Z,27.59
2018-09-05T10:08:17.759Z,27.77
2018-09-05T10:09:17.824Z,27.84
2018-09-05T10:10:18.696Z,27.91
2018-09-05T10:11:18.553Z,28.08
2018-09-05T10:12:18.032Z,27.96
2018-09-05T10:13:18.097Z,27.80
2018-09-05T10:14:18.165Z,27.95
2018-09-05T10:15:18.236Z,27.87
2018-09-05T10:16:18.306Z,27.93
2018-09-05T10:17:18.375Z,27.98
2018-09-05T10:18:18.441Z,28.02
2018-09-05T10:19:18.509Z,28.09
2018-09-05T10:20:18.585Z,28.21
2018-09-05T10:21:18.646Z,28.15
2018-09-05T10:22:18.716Z,28.15
2018-09-05T10:23:18.784Z,28.23
2018-09-05T10:24:18.854Z,28.30
2018-09-05T10:25:18.921Z,28.32
2018-09-05T10:26:18.989Z,28.27
2018-09-05T10:27:19.060Z,28.30
2018-09-05T10:28:19.128Z,28.46
2018-09-05T10:29:19.197Z,28.45
2018-09-05T10:30:19.265Z,28.72
2018-09-05T10:31:19.335Z,28.72
2018-09-05T10:32:19.404Z,28.73
2018-09-05T10:33:19.472Z,28.85
2018-09-05T10:34:19.545Z,28.88
2018-09-05T10:35:19.610Z,28.95
2018-09-05T10:36:19.680Z,28.88
2018-09-05T10:37:19.748Z,28.94
2018-09-05T10:38:19.819Z,28.95
2018-09-05T10:39:19.890Z,29.07
2018-09-05T10:40:19.957Z,29.20
2018-09-05T10:41:20.025Z,29.12
2018-09-05T10:42:20.097Z,29.35
2018-09-05T10:43:20.167Z,29.47
2018-09-05T10:44:20.329Z,29.45
2018-09-05T10:45:20.307Z,29.49
2018-09-05T10:46:20.377Z,29.66
2018-09-05T10:47:20.449Z,29.85
2018-09-05T10:48:20.520Z,29.86
2018-09-05T10:49:20.594Z,29.82
2018-09-05T10:50:20.662Z,30.00
2018-09-05T10:51:20.735Z,30.11
2018-09-05T10:52:20.808Z,30.85
2018-09-05T10:53:20.878Z,31.52
2018-09-05T10:54:20.951Z,31.47
2018-09-05T10:55:21.024Z,31.99
2018-09-05T10:56:21.097Z,32.58
2018-09-05T10:57:21.169Z,32.78
2018-09-05T10:58:21.242Z,33.06
2018-09-05T10:59:21.316Z,32.83
2018-09-05T11:00:21.391Z,32.98
2018-09-05T11:01:21.466Z,33.28
2018-09-05T11:02:21.539Z,33.17
2018-09-05T11:03:21.613Z,32.50
2018-09-05T11:04:21.752Z,32.72
2018-09-05T11:05:22.341Z,33.26
2018-09-05T11:06:21.836Z,33.87
2018-09-05T11:07:21.910Z,33.49
2018-09-05T11:08:21.985Z,32.96
2018-09-05T11:09:22.059Z,33.24
2018-09-05T11:10:22.195Z,33.41
2018-09-05T11:11:22.208Z,33.82
2018-09-05T11:12:22.284Z,33.50
2018-09-05T11:13:22.359Z,33.75
2018-09-05T11:14:22.434Z,33.66
2018-09-05T11:15:22.510Z,32.99
2018-09-05T11:16:22.585Z,33.34
2018-09-05T11:17:22.659Z,32.68
2018-09-05T11:18:22.734Z,32.29
2018-09-05T11:19:22.810Z,32.40
2018-09-05T11:20:22.886Z,32.31
2018-09-05T11:21:22.987Z,31.92
2018-09-05T11:22:23.037Z,32.51
2018-09-05T11:23:23.112Z,32.40
2018-09-05T11:24:23.190Z,33.11
2018-09-05T11:25:23.263Z,33.50
2018-09-05T11:26:23.344Z,32.80
2018-09-05T11:27:23.414Z,31.87
2018-09-05T11:28:23.490Z,31.60
2018-09-05T11:29:23.565Z,31.46
2018-09-05T11:30:23.641Z,31.52
2018-09-05T11:31:23.717Z,31.90
2018-09-05T11:32:23.792Z,32.22
2018-09-05T11:33:23.866Z,32.10
2018-09-05T11:34:23.942Z,31.76
2018-09-05T11:35:24.018Z,31.95
2018-09-05T11:36:24.093Z,32.02
2018-09-05T11:37:24.169Z,32.41
2018-09-05T11:38:24.244Z,32.32
2018-09-05T11:39:24.319Z,32.81
2018-09-05T11:40:24.396Z,33.37
2018-09-05T11:41:24.470Z,33.05
2018-09-05T11:42:24.546Z,33.05
2018-09-05T11:43:24.622Z,32.41
2018-09-05T11:44:24.697Z,32.29
2018-09-05T11:45:24.772Z,32.99
2018-09-05T11:46:24.847Z,33.29
2018-09-05T11:47:24.927Z,34.06
2018-09-05T11:48:24.998Z,34.73
2018-09-05T11:49:25.095Z,34.40
2018-09-05T11:50:25.149Z,33.63
2018-09-05T11:51:25.225Z,32.35
2018-09-05T11:52:25.302Z,32.35
2018-09-05T11:53:25.374Z,32.77
2018-09-05T11:54:25.451Z,33.06
2018-09-05T11:55:25.542Z,33.50
2018-09-05T11:56:25.602Z,33.81
2018-09-05T11:57:25.734Z,34.31
2018-09-05T11:58:25.752Z,34.30
2018-09-05T11:59:25.832Z,34.12
2018-09-05T12:00:25.902Z,33.92
2018-09-05T12:01:25.979Z,34.06
2018-09-05T12:02:26.064Z,34.05
2018-09-05T12:03:26.130Z,33.03
2018-09-05T12:04:26.206Z,32.06
2018-09-05T12:05:26.281Z,31.05
2018-09-05T12:06:26.355Z,30.78
2018-09-05T12:07:26.431Z,30.61
2018-09-05T12:08:26.506Z,30.91
2018-09-05T12:09:26.593Z,31.16
2018-09-05T12:10:26.655Z,31.57
2018-09-05T12:11:26.733Z,30.48
2018-09-05T12:12:26.805Z,30.15
2018-09-05T12:13:26.878Z,30.03
2018-09-05T12:14:26.951Z,30.38
2018-09-05T12:15:27.026Z,30.25
2018-09-05T12:16:27.099Z,30.40
2018-09-05T12:17:27.173Z,30.53
2018-09-05T12:18:27.245Z,30.46
2018-09-05T12:19:27.318Z,30.61
2018-09-05T12:20:27.391Z,30.51
2018-09-05T12:21:27.467Z,30.60
2018-09-05T12:22:27.536Z,30.56
2018-09-05T12:23:27.607Z,30.75
2018-09-05T12:24:27.997Z,30.90
2018-09-05T12:25:27.752Z,31.57
2018-09-05T12:26:27.825Z,32.85
2018-09-05T12:27:27.896Z,33.75
2018-09-05T12:28:27.969Z,33.74
2018-09-05T12:29:28.040Z,33.62
2018-09-05T12:30:28.113Z,32.71
2018-09-05T12:31:28.185Z,32.05
2018-09-05T12:32:28.261Z,31.79
2018-09-05T12:33:28.331Z,32.19
2018-09-05T12:34:28.401Z,32.53
2018-09-05T12:35:28.476Z,33.11
2018-09-05T12:36:28.546Z,34.18
2018-09-05T12:37:28.619Z,34.08
2018-09-05T12:38:28.693Z,34.43
2018-09-05T12:39:28.767Z,33.82
2018-09-05T12:40:28.839Z,34.06
2018-09-05T12:41:29.146Z,34.72
2018-09-05T12:42:28.985Z,33.71
2018-09-05T12:43:29.060Z,33.92
2018-09-05T12:44:29.135Z,33.31
2018-09-05T12:45:29.208Z,32.25
2018-09-05T12:46:29.281Z,32.03
2018-09-05T12:47:29.356Z,31.50
2018-09-05T12:48:29.432Z,31.67
2018-09-05T12:49:29.505Z,31.34
2018-09-05T12:50:29.580Z,31.56
2018-09-05T12:51:29.657Z,31.99
2018-09-05T12:52:29.731Z,32.13
2018-09-05T12:53:29.804Z,32.47
2018-09-05T12:54:29.877Z,32.36